createdAt,value
2019-04-06T00:00:55.623Z,88.80
2019-04-06T00:03:28.810Z,92.83
2019-04-06T00:05:58.342Z,88.47
2019-04-06T00:08:37.767Z,87.37
2019-04-06T00:11:16.457Z,90.20
2019-04-06T00:14:08.479Z,84.07
2019-04-06T00:19:10.879Z,92.43
2019-04-06T00:21:47.600Z,93.33
2019-04-06T00:24:14.043Z,84.87
2019-04-06T00:26:54.751Z,85.20
2019-04-06T00:29:27.243Z,92.33
2019-04-06T00:32:04.230Z,91.63
2019-04-06T00:34:57.436Z,85.90
2019-04-06T00:37:34.855Z,88.43
2019-04-06T00:40:07.491Z,92.07
2019-04-06T00:42:33.902Z,99.40
2019-04-06T00:45:06.660Z,104.63
2019-04-06T00:47:33.294Z,104.80
2019-04-06T00:50:05.885Z,93.47
2019-04-06T00:52:32.329Z,91.70
2019-04-06T00:55:23.730Z,96.33
2019-04-06T00:57:53.145Z,91.17
2019-04-06T01:00:19.958Z,89.20
2019-04-06T01:03:04.619Z,88.43
2019-04-06T01:05:55.662Z,96.87
2019-04-06T01:08:34.279Z,88.00
2019-04-06T01:11:31.579Z,98.70
2019-04-06T01:14:04.038Z,95.97
2019-04-06T01:16:41.023Z,95.40
2019-04-06T01:19:13.619Z,105.23
2019-04-06T01:22:34.725Z,102.67
2019-04-06T01:25:13.522Z,94.83
2019-04-06T01:27:47.791Z,96.47
2019-04-06T01:30:14.306Z,96.10
2019-04-06T01:32:40.795Z,99.97
2019-04-06T01:35:08.500Z,97.23
2019-04-06T01:37:38.003Z,98.67
2019-04-06T01:40:41.550Z,99.33
2019-04-06T01:43:10.982Z,100.23
2019-04-06T01:45:49.485Z,99.00
2019-04-06T01:48:19.112Z,99.87
2019-04-06T01:50:56.599Z,97.53
2019-04-06T01:53:29.000Z,104.50
2019-04-06T01:55:55.397Z,96.80
2019-04-06T01:58:38.184Z,102.43
2019-04-06T02:01:07.711Z,106.40
2019-04-06T02:03:49.518Z,104.60
2019-04-06T02:06:15.847Z,95.12
2019-04-06T02:08:45.304Z,102.23
2019-04-06T02:11:14.892Z,106.97
2019-04-06T02:13:43.152Z,101.47
2019-04-06T02:16:15.482Z,101.07
2019-04-06T02:19:12.742Z,82.10
2019-04-06T02:21:48.314Z,106.20
2019-04-06T02:24:17.729Z,105.47
2019-04-06T02:26:50.266Z,104.70
2019-04-06T02:29:19.745Z,105.60
2019-04-06T02:31:53.712Z,102.67
2019-04-06T02:34:27.743Z,105.50
2019-04-06T02:37:11.022Z,105.60
2019-04-06T02:39:51.389Z,111.97
2019-04-06T02:42:19.618Z,102.03
2019-04-06T02:44:51.856Z,98.83
2019-04-06T02:47:18.559Z,104.23
2019-04-06T02:49:48.094Z,102.23
2019-04-06T02:52:23.856Z,100.90
2019-04-06T02:54:53.383Z,102.27
2019-04-06T02:57:32.197Z,103.83
2019-04-06T03:00:09.259Z,105.43
2019-04-06T03:02:38.725Z,101.80
2019-04-06T03:05:06.566Z,105.23
2019-04-06T03:07:36.164Z,106.40
2019-04-06T03:10:32.318Z,103.17
2019-04-06T03:13:21.646Z,104.83
2019-04-06T03:16:21.872Z,107.27
2019-04-06T03:19:23.779Z,103.10
2019-04-06T03:21:53.759Z,113.57
2019-04-06T03:24:32.013Z,105.43
2019-04-06T03:27:02.772Z,108.07
2019-04-06T03:29:35.847Z,112.83
2019-04-06T03:32:08.677Z,106.33
2019-04-06T03:34:56.658Z,105.63
2019-04-06T03:37:23.032Z,107.87
2019-04-06T03:39:58.510Z,107.63
2019-04-06T03:42:30.815Z,109.13
2019-04-06T03:45:00.195Z,107.67
2019-04-06T03:47:45.098Z,109.97
2019-04-06T03:50:14.683Z,108.87
2019-04-06T03:52:40.999Z,109.37
2019-04-06T03:55:16.434Z,112.63
2019-04-06T03:58:01.192Z,106.43
2019-04-06T04:00:27.585Z,109.03
2019-04-06T04:02:59.056Z,105.03
2019-04-06T04:05:37.459Z,110.92
2019-04-06T04:08:10.670Z,111.77
2019-04-06T04:10:40.300Z,110.80
2019-04-06T04:13:21.754Z,113.80
2019-04-06T04:15:48.326Z,107.40
2019-04-06T04:19:01.286Z,110.03
2019-04-06T04:21:35.458Z,105.90
2019-04-06T04:24:11.003Z,103.90
2019-04-06T04:26:40.390Z,111.83
2019-04-06T04:29:22.390Z,111.87
2019-04-06T04:35:05.318Z,117.47
2019-04-06T04:37:51.136Z,118.23
2019-04-06T04:40:17.778Z,114.57
2019-04-06T04:42:50.227Z,111.50
2019-04-06T04:45:19.758Z,110.03
2019-04-06T04:47:50.301Z,117.70
2019-04-06T04:50:20.274Z,113.85
2019-04-06T04:52:49.910Z,109.10
2019-04-06T04:55:18.362Z,121.97
2019-04-06T05:01:52.759Z,112.60
2019-04-06T05:04:29.329Z,113.03
2019-04-06T05:07:01.871Z,105.87
2019-04-06T05:09:37.526Z,116.77
2019-04-06T05:12:07.147Z,116.37
2019-04-06T05:18:14.117Z,103.53
2019-04-06T05:20:48.363Z,102.83
2019-04-06T05:23:38.102Z,113.00
2019-04-06T05:26:06.742Z,108.77
2019-04-06T05:28:39.399Z,105.50
2019-04-06T05:31:12.280Z,106.57
2019-04-06T05:33:38.738Z,104.87
2019-04-06T05:36:08.532Z,103.20
2019-04-06T05:38:38.003Z,100.57
2019-04-06T05:41:07.554Z,104.87
2019-04-06T05:43:43.596Z,112.60
2019-04-06T05:46:28.726Z,100.57
2019-04-06T05:48:55.353Z,107.63
2019-04-06T05:51:25.019Z,106.23
2019-04-06T05:54:13.364Z,107.63
2019-04-06T05:56:42.827Z,104.73
2019-04-06T05:59:12.929Z,102.60
2019-04-06T06:01:53.101Z,100.50
2019-04-06T06:04:27.625Z,113.77
2019-04-06T06:06:57.568Z,106.70
2019-04-06T06:09:35.207Z,105.33
2019-04-06T06:12:09.645Z,103.70
2019-04-06T06:14:43.086Z,109.63
2019-04-06T06:17:18.836Z,108.53
2019-04-06T06:19:45.174Z,108.07
2019-04-06T06:22:21.562Z,103.83
2019-04-06T06:25:05.026Z,106.20
2019-04-06T06:27:31.324Z,102.80
2019-04-06T06:30:04.320Z,97.10
2019-04-06T06:32:40.951Z,97.90
2019-04-06T06:35:13.705Z,103.03
2019-04-06T06:37:49.080Z,92.90
2019-04-06T06:40:18.462Z,98.07
2019-04-06T06:42:47.993Z,98.43
2019-04-06T06:45:36.091Z,101.87
2019-04-06T06:48:05.624Z,95.83
2019-04-06T06:50:44.661Z,93.20
2019-04-06T06:53:11.277Z,95.63
2019-04-06T06:55:40.691Z,92.83
2019-04-06T06:58:24.640Z,89.00
2019-04-06T07:00:45.774Z,94.73
2019-04-06T07:03:15.141Z,94.80
2019-04-06T07:05:45.657Z,95.40
2019-04-06T07:08:12.035Z,86.63
2019-04-06T07:10:44.572Z,91.60
2019-04-06T07:13:19.944Z,92.73
2019-04-06T07:15:57.023Z,89.40
2019-04-06T07:19:19.049Z,93.57
2019-04-06T07:22:00.855Z,85.35
2019-04-06T07:25:02.713Z,84.13
2019-04-06T07:27:35.418Z,85.87
2019-04-06T07:30:06.930Z,86.30
2019-04-06T07:32:36.475Z,84.67
2019-04-06T07:35:07.071Z,87.80
2019-04-06T07:38:06.348Z,87.77
2019-04-06T07:40:37.697Z,81.97
2019-04-06T07:43:48.182Z,80.38
2019-04-06T07:46:15.119Z,77.20
2019-04-06T07:48:47.659Z,81.70
2019-04-06T07:51:23.519Z,79.27
2019-04-06T07:54:00.913Z,76.02
2019-04-06T07:56:29.351Z,78.40
2019-04-06T07:58:57.790Z,75.75
2019-04-06T08:01:30.173Z,74.80
2019-04-06T08:04:02.927Z,77.70
2019-04-06T08:06:32.668Z,71.72
2019-04-06T08:09:30.782Z,70.92
2019-04-06T08:12:00.546Z,76.05
2019-04-06T08:14:38.939Z,75.30
2019-04-06T08:17:06.537Z,75.70
2019-04-06T08:19:48.109Z,69.47
2019-04-06T08:22:14.434Z,68.05
2019-04-06T08:24:53.091Z,67.78
2019-04-06T08:27:26.331Z,60.75
2019-04-06T08:29:58.876Z,60.03
2019-04-06T08:32:34.240Z,65.37
2019-04-06T08:35:09.660Z,63.65
2019-04-06T08:37:39.099Z,54.80
2019-04-06T08:40:11.101Z,53.75
2019-04-06T08:42:52.157Z,47.80
2019-04-06T08:45:27.823Z,47.93
2019-04-06T08:48:19.010Z,51.23
2019-04-06T08:50:51.945Z,46.65
2019-04-06T08:53:24.245Z,43.65
2019-04-06T08:55:51.115Z,39.88
2019-04-06T08:58:18.736Z,42.38
2019-04-06T09:00:48.491Z,45.10
2019-04-06T09:03:19.084Z,45.92
2019-04-06T09:05:48.856Z,43.08
2019-04-06T09:08:37.088Z,44.98
2019-04-06T09:11:18.697Z,42.83
2019-04-06T09:13:51.484Z,42.50
2019-04-06T09:16:30.625Z,45.48
2019-04-06T09:19:06.144Z,42.27
2019-04-06T09:21:35.678Z,42.38
2019-04-06T09:24:08.815Z,41.28
2019-04-06T09:26:39.158Z,44.27
2019-04-06T09:29:07.560Z,42.00
2019-04-06T09:31:37.864Z,43.70
2019-04-06T09:39:45.069Z,43.87
2019-04-06T09:42:26.628Z,42.60
2019-04-06T09:45:09.929Z,40.58
2019-04-06T09:48:03.248Z,44.88
2019-04-06T09:50:35.647Z,36.05
2019-04-06T09:53:04.761Z,36.73
2019-04-06T09:55:43.177Z,42.35
2019-04-06T09:58:20.586Z,39.58
2019-04-06T10:00:52.567Z,30.80
2019-04-06T10:03:32.705Z,31.82
2019-04-06T10:06:00.920Z,30.05
2019-04-06T10:08:43.422Z,34.08
2019-04-06T10:11:33.677Z,37.35
2019-04-06T10:14:27.264Z,34.35
2019-04-06T10:17:19.916Z,39.27
2019-04-06T10:20:07.375Z,40.40
2019-04-06T10:22:53.599Z,34.55
2019-04-06T10:25:27.469Z,36.58
2019-04-06T10:28:03.748Z,34.63
2019-04-06T10:30:54.027Z,28.10
2019-04-06T10:33:28.364Z,25.15
2019-04-06T10:35:56.823Z,24.98
2019-04-06T10:38:46.125Z,23.70
2019-04-06T10:41:20.331Z,24.92
2019-04-06T10:44:07.023Z,25.02
2019-04-06T10:46:55.258Z,26.85
2019-04-06T10:49:42.972Z,23.62
2019-04-06T10:52:32.050Z,22.87
2019-04-06T10:55:10.061Z,21.52
2019-04-06T10:57:48.302Z,23.47
2019-04-06T11:00:22.489Z,20.95
2019-04-06T11:02:56.770Z,20.55
2019-04-06T11:05:49.345Z,22.42
2019-04-06T11:08:33.843Z,22.60
2019-04-06T11:11:23.084Z,19.37
2019-04-06T11:14:14.584Z,22.95
2019-04-06T11:17:00.567Z,24.15
2019-04-06T11:19:47.160Z,24.43
2019-04-06T11:22:24.570Z,24.63
2019-04-06T11:25:07.370Z,20.68
2019-04-06T11:27:42.434Z,20.70
2019-04-06T11:30:16.691Z,19.30
2019-04-06T11:32:51.412Z,18.87
2019-04-06T11:35:32.341Z,20.23
2019-04-06T11:38:21.309Z,20.43
2019-04-06T11:41:22.554Z,17.07
2019-04-06T11:43:50.787Z,20.20
2019-04-06T11:46:22.048Z,18.65
2019-04-06T11:49:16.826Z,18.85
2019-04-06T11:51:51.370Z,19.50
2019-04-06T11:54:31.970Z,16.97
2019-04-06T11:57:13.200Z,17.82
2019-04-06T11:59:41.711Z,18.57
2019-04-06T12:02:29.811Z,16.25
2019-04-06T12:05:14.650Z,18.15
2019-04-06T12:08:07.786Z,18.70
2019-04-06T12:11:09.991Z,19.20
2019-04-06T12:13:52.916Z,17.07
2019-04-06T12:16:40.003Z,19.23
2019-04-06T12:19:52.053Z,17.77
2019-04-06T12:22:20.386Z,18.98
2019-04-06T12:25:00.114Z,20.32
2019-04-06T12:27:31.612Z,18.67
2019-04-06T12:33:03.264Z,20.20
2019-04-06T12:35:39.500Z,19.98
2019-04-06T12:38:11.978Z,18.70
2019-04-06T12:40:48.437Z,18.15
2019-04-06T12:43:32.033Z,21.33
2019-04-06T12:46:00.569Z,19.37
2019-04-06T12:48:33.944Z,20.85
2019-04-06T12:51:08.895Z,23.32
2019-04-06T12:53:41.272Z,22.55
2019-04-06T12:56:20.736Z,23.07
2019-04-06T12:58:54.091Z,24.23
2019-04-06T13:01:25.434Z,21.80
2019-04-06T13:04:08.708Z,22.82
2019-04-06T13:06:54.947Z,22.58
2019-04-06T13:09:43.699Z,22.32
2019-04-06T13:12:12.633Z,24.45
2019-04-06T13:14:47.697Z,23.32
2019-04-06T13:17:20.930Z,23.55
2019-04-06T13:20:01.284Z,23.77
2019-04-06T13:22:35.603Z,20.48
2019-04-06T13:25:13.080Z,23.80
2019-04-06T13:28:24.640Z,24.43
2019-04-06T13:31:19.155Z,25.40
2019-04-06T13:34:04.928Z,22.00
2019-04-06T13:36:46.355Z,20.05
2019-04-06T13:39:17.592Z,20.05
2019-04-06T13:42:05.412Z,22.62
2019-04-06T13:44:47.297Z,23.07
2019-04-06T13:47:21.608Z,24.75
2019-04-06T13:50:26.725Z,16.57
2019-04-06T13:53:10.413Z,22.25
2019-04-06T13:55:41.963Z,23.52
2019-04-06T13:58:13.630Z,20.35
2019-04-06T14:08:38.149Z,22.32
2019-04-06T14:11:23.178Z,19.90
2019-04-06T14:14:03.717Z,19.50
2019-04-06T14:16:44.454Z,18.80
2019-04-06T14:19:15.697Z,21.50
2019-04-06T14:22:05.561Z,19.27
2019-04-06T14:24:58.115Z,20.60
2019-04-06T14:27:32.616Z,18.15
2019-04-06T14:33:54.083Z,17.95
2019-04-06T14:36:38.974Z,20.48
2019-04-06T14:39:13.676Z,18.00
2019-04-06T14:41:54.057Z,18.55
2019-04-06T14:44:40.207Z,20.90
2019-04-06T14:47:08.576Z,19.30
2019-04-06T14:49:58.936Z,20.17
2019-04-06T14:52:48.953Z,18.77
2019-04-06T14:55:27.948Z,19.30
2019-04-06T15:01:06.283Z,19.52
2019-04-06T15:04:30.025Z,19.70
2019-04-06T15:07:10.789Z,20.17
2019-04-06T15:09:40.162Z,20.25
2019-04-06T15:12:14.843Z,19.85
2019-04-06T15:15:05.139Z,20.05
2019-04-06T15:17:50.739Z,22.65
2019-04-06T15:20:44.298Z,21.00
2019-04-06T15:23:45.715Z,20.10
2019-04-06T15:26:18.268Z,22.17
2019-04-06T15:29:06.300Z,20.88
2019-04-06T15:31:34.856Z,23.32
2019-04-06T15:34:08.704Z,22.25
2019-04-06T15:36:53.771Z,18.85
2019-04-06T15:39:31.677Z,20.02
2019-04-06T15:42:08.891Z,19.45
2019-04-06T15:44:58.333Z,22.25
2019-04-06T15:47:46.905Z,22.22
2019-04-06T15:50:21.336Z,19.30
2019-04-06T15:53:18.336Z,19.92
2019-04-06T15:56:04.095Z,20.82
2019-04-06T15:58:35.884Z,20.20
2019-04-06T16:01:07.717Z,20.57
2019-04-06T16:03:49.598Z,22.07
2019-04-06T16:06:56.230Z,18.30
2019-04-06T16:09:41.892Z,19.23
2019-04-06T16:12:46.047Z,22.22
2019-04-06T16:15:23.770Z,22.95
2019-04-06T16:17:58.573Z,19.95
2019-04-06T16:20:34.602Z,21.77
2019-04-06T16:23:20.947Z,21.42
2019-04-06T16:25:52.324Z,25.20
2019-04-06T16:28:26.631Z,22.45
2019-04-06T16:31:30.211Z,22.17
2019-04-06T16:34:23.608Z,20.72
2019-04-06T16:36:51.859Z,21.95
2019-04-06T16:39:24.241Z,24.02
2019-04-06T16:42:16.114Z,21.68
2019-04-06T16:45:12.677Z,21.17
2019-04-06T16:47:44.484Z,22.17
2019-04-06T16:50:20.025Z,19.75
2019-04-06T16:52:52.179Z,20.75
2019-04-06T16:55:42.118Z,22.52
2019-04-06T16:58:28.881Z,21.93
2019-04-06T17:01:25.700Z,26.10
2019-04-06T17:04:04.639Z,23.55
2019-04-06T17:06:53.393Z,25.85
2019-04-06T17:09:23.260Z,27.75
2019-04-06T17:12:04.038Z,20.02
2019-04-06T17:14:49.802Z,18.95
2019-04-06T17:17:31.601Z,23.35
2019-04-06T17:20:20.528Z,22.15
2019-04-06T17:23:22.792Z,24.92
2019-04-06T17:26:02.838Z,23.02
2019-04-06T17:28:40.718Z,20.52
2019-04-06T17:31:29.235Z,21.68
2019-04-06T17:34:11.608Z,22.05
2019-04-06T17:36:40.153Z,24.50
2019-04-06T17:39:28.913Z,21.37
2019-04-06T17:42:03.309Z,25.50
2019-04-06T17:44:35.046Z,25.57
2019-04-06T17:47:22.347Z,29.67
2019-04-06T17:50:11.129Z,25.32
2019-04-06T17:53:03.726Z,24.43
2019-04-06T17:56:00.006Z,40.67
2019-04-06T17:58:37.400Z,58.87
2019-04-06T18:01:23.545Z,42.25
2019-04-06T18:04:06.501Z,35.10
2019-04-06T18:06:53.198Z,38.40
2019-04-06T18:09:54.814Z,36.40
2019-04-06T18:12:43.110Z,36.65
2019-04-06T18:15:15.684Z,41.20
2019-04-06T18:17:44.514Z,33.02
2019-04-06T18:20:17.710Z,33.35
2019-04-06T18:22:44.033Z,29.10
2019-04-06T18:25:13.826Z,33.50
2019-04-06T18:27:46.110Z,34.23
2019-04-06T18:30:19.001Z,33.02
2019-04-06T18:33:23.236Z,27.77
2019-04-06T18:36:10.102Z,27.73
2019-04-06T18:39:08.244Z,28.27
2019-04-06T18:41:34.648Z,31.52
2019-04-06T18:44:13.022Z,29.30
2019-04-06T18:46:55.072Z,27.32
2019-04-06T18:49:26.055Z,32.13
2019-04-06T18:51:53.614Z,32.30
2019-04-06T18:55:00.965Z,35.95
2019-04-06T18:57:28.649Z,30.88
2019-04-06T19:00:18.579Z,33.40
2019-04-06T19:02:44.838Z,32.88
2019-04-06T19:05:11.441Z,34.73
2019-04-06T19:07:38.269Z,36.95
2019-04-06T19:10:18.714Z,38.78
2019-04-06T19:12:51.192Z,35.68
2019-04-06T19:15:36.774Z,39.45
2019-04-06T19:18:03.374Z,55.33
2019-04-06T19:20:30.406Z,45.30
2019-04-06T19:22:57.127Z,47.33
2019-04-06T19:25:23.595Z,44.42
2019-04-06T19:27:53.505Z,49.83
2019-04-06T19:30:29.747Z,41.85
2019-04-06T19:33:02.233Z,40.05
2019-04-06T19:35:31.796Z,36.73
2019-04-06T19:38:16.745Z,39.18
2019-04-06T19:40:49.339Z,44.38
2019-04-06T19:43:56.600Z,43.83
2019-04-06T19:46:35.228Z,40.90
2019-04-06T19:49:08.732Z,40.43
2019-04-06T19:51:50.447Z,48.60
2019-04-06T19:54:16.897Z,42.27
2019-04-06T19:56:50.978Z,41.28
2019-04-06T19:59:21.273Z,44.85
2019-04-06T20:01:49.257Z,46.45
2019-04-06T20:04:19.455Z,50.80
2019-04-06T20:07:11.425Z,46.33
2019-04-06T20:09:44.770Z,42.75
2019-04-06T20:12:19.792Z,46.15
2019-04-06T20:14:54.973Z,49.55
2019-04-06T20:17:28.812Z,45.08
2019-04-06T20:19:58.548Z,49.38
2019-04-06T20:22:31.080Z,52.70
2019-04-06T20:25:02.022Z,48.15
2019-04-06T20:27:30.536Z,48.75
2019-04-06T20:29:56.782Z,53.85
2019-04-06T20:32:23.470Z,49.58
2019-04-06T20:34:55.760Z,50.43
2019-04-06T20:37:22.053Z,52.90
2019-04-06T20:39:48.364Z,58.52
2019-04-06T20:42:14.641Z,54.38
2019-04-06T20:44:40.982Z,59.08
2019-04-06T20:47:07.285Z,56.20
2019-04-06T20:49:33.626Z,57.13
2019-04-06T20:52:02.958Z,56.20
2019-04-06T20:54:29.730Z,55.03
2019-04-06T20:56:58.177Z,54.18
2019-04-06T20:59:24.156Z,54.03
2019-04-06T21:01:50.422Z,56.60
2019-04-06T21:04:17.902Z,55.05
2019-04-06T21:06:44.725Z,53.20
2019-04-06T21:09:12.147Z,56.73
2019-04-06T21:11:38.505Z,56.95
2019-04-06T21:14:04.791Z,52.90
2019-04-06T21:16:31.494Z,63.02
2019-04-06T21:18:57.921Z,57.33
2019-04-06T21:21:30.405Z,54.38
2019-04-06T21:23:56.675Z,52.90
2019-04-06T21:26:22.939Z,56.00
2019-04-06T21:28:51.196Z,60.73
2019-04-06T21:31:18.029Z,59.63
2019-04-06T21:33:45.869Z,57.00
2019-04-06T21:36:12.439Z,56.88
2019-04-06T21:38:38.911Z,62.88
2019-04-06T21:41:06.970Z,60.30
2019-04-06T21:43:39.290Z,58.08
2019-04-06T21:46:05.635Z,62.33
2019-04-06T21:48:32.438Z,65.62
2019-04-06T21:50:58.744Z,55.73
2019-04-06T21:53:25.439Z,68.70
2019-04-06T21:56:00.998Z,69.20
2019-04-06T21:58:20.084Z,61.23
2019-04-06T22:00:48.259Z,61.30
2019-04-06T22:03:15.576Z,64.03
2019-04-06T22:05:42.101Z,64.80
2019-04-06T22:08:15.071Z,70.83
2019-04-06T22:10:45.806Z,64.62
2019-04-06T22:13:14.789Z,67.42
2019-04-06T22:15:41.418Z,69.40
2019-04-06T22:18:09.231Z,64.95
2019-04-06T22:20:35.579Z,62.70
2019-04-06T22:23:06.603Z,67.95
2019-04-06T22:25:33.434Z,70.30
2019-04-06T22:27:59.977Z,70.67
2019-04-06T22:30:26.211Z,67.12
2019-04-06T22:32:56.110Z,74.65
2019-04-06T22:35:23.057Z,82.92
2019-04-06T22:37:49.714Z,79.05
2019-04-06T22:40:16.547Z,81.20
2019-04-06T22:42:43.310Z,76.77
2019-04-06T22:45:12.604Z,83.30
2019-04-06T22:47:39.351Z,77.67
2019-04-06T22:50:07.314Z,81.80
2019-04-06T22:52:34.276Z,75.10
2019-04-06T22:55:05.081Z,75.33
2019-04-06T22:57:31.785Z,79.50
2019-04-06T22:59:58.672Z,79.07
2019-04-06T23:02:27.349Z,79.25
2019-04-06T23:04:56.039Z,79.73
2019-04-06T23:07:24.543Z,81.90
2019-04-06T23:09:50.882Z,76.80
2019-04-06T23:12:17.705Z,84.17
2019-04-06T23:14:44.314Z,93.78
2019-04-06T23:17:11.177Z,86.97
2019-04-06T23:19:37.568Z,83.03
2019-04-06T23:22:03.963Z,88.13
2019-04-06T23:24:30.859Z,90.90
2019-04-06T23:26:57.833Z,88.27
2019-04-06T23:29:24.195Z,93.67
2019-04-06T23:31:50.531Z,107.40
2019-04-06T23:34:27.149Z,96.40
2019-04-06T23:36:53.648Z,103.20
2019-04-06T23:39:19.895Z,89.47
2019-04-06T23:41:48.431Z,89.50
2019-04-06T23:44:21.153Z,90.97
2019-04-06T23:46:47.609Z,94.50
2019-04-06T23:49:13.851Z,95.00
2019-04-06T23:51:40.138Z,104.47
2019-04-06T23:54:06.524Z,112.77
2019-04-06T23:56:33.677Z,99.32
2019-04-06T23:59:00.461Z,101.27
